Time;durP1;ratioP1;P1;durP2;ratioP2;P2;SDS_P1;SDS_P2;PMS_P1;PMS_P2;Temp;Humidity;BMP_temperature;BMP_pressure;BME280_temperature;BME280_humidity;BME280_pressure;Samples;Min_cycle;Max_cycle;Signal;HPM_P1;HPM_P2
2021/12/04 00:00:06;;;;;;;6.97;5.05;;;4.40;99.90;;;;;;5023701;28;19921;-77
2021/12/04 00:02:32;;;;;;;12.73;5.05;;;4.40;99.90;;;;;;5023049;28;20082;-77
2021/12/04 00:05:00;;;;;;;14.35;5.65;;;4.40;99.90;;;;;;5024404;28;20041;-78
2021/12/04 00:07:28;;;;;;;9.73;6.57;;;4.60;99.90;;;;;;5010633;28;20083;-76
2021/12/04 00:09:58;;;;;;;11.25;7.95;;;4.40;99.90;;;;;;5012005;28;20049;-77
2021/12/04 00:12:24;;;;;;;15.70;7.20;;;4.40;99.90;;;;;;5027503;28;20041;-79
2021/12/04 00:14:49;;;;;;;12.05;7.25;;;4.40;99.90;;;;;;5015559;28;20041;-77
2021/12/04 00:17:15;;;;;;;5.57;3.50;;;4.40;99.90;;;;;;5044226;28;20043;-77
2021/12/04 00:19:41;;;;;;;12.07;7.40;;;4.40;99.90;;;;;;5013739;28;20062;-77
2021/12/04 00:22:07;;;;;;;9.65;5.15;;;4.40;99.90;;;;;;5033816;28;20044;-77
2021/12/04 00:24:33;;;;;;;14.93;8.13;;;4.40;99.90;;;;;;5020335;28;20052;-78
2021/12/04 00:26:59;;;;;;;7.45;5.00;;;4.40;99.90;;;;;;5035314;28;20128;-77
2021/12/04 00:29:26;;;;;;;12.63;6.68;;;4.40;99.90;;;;;;5013378;28;20128;-77
2021/12/04 00:31:58;;;;;;;15.07;8.13;;;4.40;99.90;;;;;;5043474;28;20055;-78
2021/12/04 00:34:26;;;;;;;15.32;7.13;;;4.30;99.90;;;;;;5009778;28;20422;-78
2021/12/04 00:50:17;;;;;;;12.85;7.68;;;4.50;99.90;;;;;;5031213;28;20491;-76
2021/12/04 00:52:43;;;;;;;11.60;5.75;;;4.40;99.90;;;;;;5035566;28;20087;-77
2021/12/04 00:55:09;;;;;;;12.80;6.32;;;4.30;99.90;;;;;;5026147;28;20050;-78
2021/12/04 00:57:34;;;;;;;14.20;6.80;;;4.30;99.90;;;;;;5022389;28;20083;-78
2021/12/04 01:00:01;;;;;;;10.50;5.13;;;4.30;99.90;;;;;;5044955;28;20589;-77
2021/12/04 01:02:27;;;;;;;16.85;7.80;;;4.30;99.90;;;;;;5007127;28;20067;-77
2021/12/04 01:04:53;;;;;;;12.70;7.65;;;4.30;99.90;;;;;;5020640;28;20042;-77
2021/12/04 01:07:20;;;;;;;11.38;6.25;;;4.50;99.90;;;;;;5008471;28;20048;-76
2021/12/04 01:09:46;;;;;;;9.30;5.80;;;4.30;99.90;;;;;;5040081;28;20480;-75
2021/12/04 01:12:13;;;;;;;16.73;4.75;;;4.30;99.90;;;;;;5014204;28;20053;-76
2021/12/04 01:14:39;;;;;;;7.93;5.82;;;4.30;99.90;;;;;;5013951;28;20044;-76
2021/12/04 01:17:05;;;;;;;11.18;6.93;;;4.30;99.90;;;;;;5018293;28;20849;-76
2021/12/04 01:19:31;;;;;;;;;;;4.30;99.90;;;;;;5044016;28;20478;-77
2021/12/04 01:21:57;;;;;;;7.75;3.70;;;4.30;99.90;;;;;;5026134;28;19924;-76
2021/12/04 01:24:24;;;;;;;16.27;7.10;;;4.30;99.90;;;;;;5030357;28;20054;-76
2021/12/04 01:26:51;;;;;;;14.05;7.35;;;4.30;99.90;;;;;;5013120;28;20124;-77
2021/12/04 01:29:18;;;;;;;15.50;5.55;;;4.30;99.90;;;;;;5016553;28;20049;-76
2021/12/04 01:31:44;;;;;;;11.55;6.85;;;4.30;99.90;;;;;;5026689;28;20550;-76
2021/12/04 01:34:11;;;;;;;12.25;7.05;;;4.30;99.90;;;;;;5039028;28;20049;-76
2021/12/04 01:36:37;;;;;;;19.35;5.90;;;4.30;99.90;;;;;;5039240;28;20390;-78
2021/12/04 01:39:05;;;;;;;15.75;7.25;;;4.30;99.90;;;;;;5034940;28;20136;-77
2021/12/04 01:41:33;;;;;;;16.08;7.25;;;4.30;99.90;;;;;;5011949;28;20111;-77
2021/12/04 01:44:00;;;;;;;13.63;6.65;;;4.30;99.90;;;;;;5033564;28;20045;-77
2021/12/04 01:46:27;;;;;;;14.30;6.53;;;4.30;99.90;;;;;;5019097;28;20099;-77
2021/12/04 01:48:52;;;;;;;11.80;8.02;;;4.30;99.90;;;;;;5018922;28;20100;-77
2021/12/04 01:51:18;;;;;;;14.18;6.78;;;4.30;99.90;;;;;;5010791;28;20049;-77
2021/12/04 01:53:44;;;;;;;13.75;6.22;;;4.30;99.90;;;;;;5028846;28;20084;-76
2021/12/04 01:56:10;;;;;;;8.73;5.53;;;4.30;99.90;;;;;;5025329;28;20033;-77
2021/12/04 01:58:36;;;;;;;8.43;6.00;;;4.30;99.90;;;;;;5024426;28;20039;-76
2021/12/04 02:01:03;;;;;;;14.07;6.97;;;4.30;99.90;;;;;;5037433;28;20041;-76
2021/12/04 02:03:28;;;;;;;13.07;7.85;;;4.20;99.90;;;;;;5030307;28;20037;-77
2021/12/04 02:05:54;;;;;;;10.43;6.57;;;4.40;99.90;;;;;;5045816;28;20056;-77
2021/12/04 02:08:22;;;;;;;11.02;7.25;;;4.30;99.90;;;;;;5035462;28;20045;-76
2021/12/04 02:10:51;;;;;;;18.90;4.10;;;4.20;99.90;;;;;;5046124;28;20095;-77
2021/12/04 02:13:18;;;;;;;12.88;7.50;;;4.30;99.90;;;;;;5030820;28;20079;-76
2021/12/04 02:15:45;;;;;;;11.48;4.95;;;4.30;99.90;;;;;;5032265;28;20049;-77
2021/12/04 02:18:13;;;;;;;21.45;6.00;;;4.30;99.90;;;;;;5026041;28;20176;-77
2021/12/04 02:20:39;;;;;;;13.30;8.27;;;4.30;99.90;;;;;;5036998;28;20831;-76
2021/12/04 02:23:07;;;;;;;10.63;5.45;;;4.30;99.90;;;;;;5027932;28;20140;-78
2021/12/04 02:25:33;;;;;;;8.57;3.88;;;4.30;99.90;;;;;;5036418;28;20448;-80
2021/12/04 02:28:00;;;;;;;11.93;7.03;;;4.30;99.90;;;;;;5031887;28;20083;-76
2021/12/04 02:30:32;;;;;;;12.13;7.72;;;4.30;99.90;;;;;;5016099;28;20038;-78
2021/12/04 02:32:58;;;;;;;13.88;5.88;;;4.30;99.90;;;;;;5030627;28;20045;-78
2021/12/04 02:35:25;;;;;;;18.50;8.40;;;4.30;99.90;;;;;;5033222;28;20061;-77
2021/12/04 02:37:51;;;;;;;19.65;6.13;;;4.30;99.90;;;;;;5035132;28;20466;-76
2021/12/04 02:40:22;;;;;;;12.93;5.63;;;4.30;99.90;;;;;;5005330;28;20042;-76
2021/12/04 02:42:48;;;;;;;10.02;4.35;;;4.30;99.90;;;;;;5009389;28;20038;-76
2021/12/04 02:45:15;;;;;;;12.52;4.25;;;4.20;99.90;;;;;;4998029;28;20095;-78
2021/12/04 02:47:41;;;;;;;4.57;4.03;;;4.20;99.90;;;;;;4986924;28;20040;-77
2021/12/04 02:50:10;;;;;;;10.88;5.30;;;4.30;99.90;;;;;;5009756;28;20049;-77
2021/12/04 02:52:37;;;;;;;4.18;3.47;;;4.30;99.90;;;;;;5014357;28;20041;-77
2021/12/04 02:55:05;;;;;;;7.80;4.93;;;4.20;99.90;;;;;;5012138;28;20096;-77
2021/12/04 02:57:32;;;;;;;7.80;3.67;;;4.20;99.90;;;;;;5009782;28;20458;-77
2021/12/04 02:59:58;;;;;;;7.65;4.18;;;4.20;99.90;;;;;;5018592;28;20041;-77
2021/12/04 03:02:24;;;;;;;7.55;4.88;;;4.20;99.90;;;;;;5012001;28;20053;-77
2021/12/04 03:04:56;;;;;;;10.50;4.90;;;4.20;99.90;;;;;;5010719;28;20402;-77
2021/12/04 03:07:22;;;;;;;17.08;6.43;;;4.20;99.90;;;;;;5009145;28;20041;-76
2021/12/04 03:09:48;;;;;;;13.50;5.75;;;4.30;99.90;;;;;;5016004;28;20052;-76
2021/12/04 03:12:18;;;;;;;9.55;4.93;;;4.20;99.90;;;;;;5012687;28;20141;-77
2021/12/04 03:14:44;;;;;;;16.30;6.78;;;4.20;99.90;;;;;;4997249;28;20045;-75
2021/12/04 03:17:10;;;;;;;;;;;4.20;99.90;;;;;;5012580;28;20041;-76
2021/12/04 03:19:38;;;;;;;8.70;4.10;;;4.20;99.90;;;;;;5003494;28;19925;-76
2021/12/04 03:22:04;;;;;;;6.57;4.68;;;4.40;99.90;;;;;;5010128;28;20070;-76
2021/12/04 03:24:31;;;;;;;8.65;5.18;;;4.20;99.90;;;;;;5011969;28;20398;-76
2021/12/04 03:26:57;;;;;;;9.57;5.45;;;4.20;99.90;;;;;;5023494;28;20125;-76
2021/12/04 03:29:26;;;;;;;12.55;4.43;;;4.20;99.90;;;;;;4999843;28;20570;-76
2021/12/04 03:42:34;;;;;;;16.88;5.45;;;4.20;99.90;;;;;;5014032;28;20052;-76
2021/12/04 03:44:59;;;;;;;9.57;5.50;;;4.30;99.90;;;;;;5014649;28;20116;-78
2021/12/04 03:47:26;;;;;;;7.05;4.32;;;4.20;99.90;;;;;;4997104;28;20128;-77
2021/12/04 03:49:51;;;;;;;;;;;4.20;99.90;;;;;;5006590;28;20073;-77
2021/12/04 03:52:17;;;;;;;8.85;3.65;;;4.10;99.90;;;;;;5014962;28;20405;-78
2021/12/04 03:54:43;;;;;;;11.18;4.30;;;4.20;99.90;;;;;;4997628;28;20046;-76
2021/12/04 03:57:12;;;;;;;7.85;3.95;;;4.10;99.90;;;;;;5023127;28;20037;-79
2021/12/04 03:59:40;;;;;;;11.18;4.15;;;4.20;99.90;;;;;;5038703;28;20045;-77
2021/12/04 04:02:10;;;;;;;6.13;3.70;;;4.20;99.90;;;;;;5010018;28;20434;-77
2021/12/04 04:04:36;;;;;;;5.20;3.80;;;4.10;99.90;;;;;;5030222;28;20037;-76
2021/12/04 04:07:01;;;;;;;;;;;4.10;99.90;;;;;;4999755;28;20048;-78
2021/12/04 04:09:28;;;;;;;13.65;6.03;;;4.20;99.90;;;;;;5014176;28;19917;-77
2021/12/04 04:11:54;;;;;;;10.27;3.60;;;4.10;99.90;;;;;;5013240;28;20078;-76
2021/12/04 04:14:21;;;;;;;4.45;3.35;;;4.10;99.90;;;;;;5007859;28;20046;-77
2021/12/04 04:16:46;;;;;;;8.38;3.63;;;4.20;99.90;;;;;;5013138;28;20045;-78
2021/12/04 04:19:12;;;;;;;9.05;4.80;;;4.10;99.90;;;;;;5025130;28;20039;-78
2021/12/04 04:21:40;;;;;;;7.35;4.63;;;4.20;99.90;;;;;;5014714;28;20490;-78
2021/12/04 04:24:10;;;;;;;5.85;3.63;;;4.20;99.90;;;;;;5023451;28;20042;-78
2021/12/04 04:26:36;;;;;;;8.73;3.67;;;4.10;99.90;;;;;;4988306;28;20463;-77
2021/12/04 04:29:06;;;;;;;6.15;4.82;;;4.10;99.90;;;;;;5030442;28;20427;-76
2021/12/04 04:31:34;;;;;;;10.88;4.13;;;4.10;99.90;;;;;;5012607;28;20479;-76
2021/12/04 04:34:04;;;;;;;6.53;4.47;;;4.10;99.90;;;;;;5022513;28;20502;-78
2021/12/04 04:39:26;;;;;;;10.50;3.70;;;4.10;99.90;;;;;;5039150;28;20071;-78
2021/12/04 05:12:10;;;;;;;9.35;4.68;;;4.10;99.90;;;;;;5023252;28;20102;-76
2021/12/04 05:14:39;;;;;;;6.68;4.75;;;4.10;99.90;;;;;;5021252;28;20056;-76
2021/12/04 05:17:09;;;;;;;3.33;3.03;;;4.10;99.90;;;;;;5029531;28;20045;-77
2021/12/04 05:22:09;;;;;;;6.85;2.42;;;4.10;99.90;;;;;;5025838;28;20141;-77
2021/12/04 05:24:34;;;;;;;4.32;3.53;;;4.10;99.90;;;;;;5024758;28;20072;-77
2021/12/04 05:27:01;;;;;;;6.80;3.60;;;4.10;99.90;;;;;;5021383;28;20450;-76
2021/12/04 05:29:26;;;;;;;;;;;4.10;99.90;;;;;;5022496;28;20442;-77
2021/12/04 05:31:52;;;;;;;6.38;2.85;;;4.10;99.90;;;;;;5043351;28;19917;-77
2021/12/04 05:34:18;;;;;;;14.48;4.53;;;4.10;99.90;;;;;;5041676;28;20041;-78
2021/12/04 05:36:43;;;;;;;10.77;5.50;;;4.10;99.90;;;;;;5020289;28;20454;-77
2021/12/04 05:39:09;;;;;;;4.35;3.28;;;4.10;99.90;;;;;;5045458;28;20057;-77
2021/12/04 05:41:36;;;;;;;7.53;3.55;;;4.10;99.90;;;;;;5032532;28;20137;-76
2021/12/04 05:44:07;;;;;;;6.13;3.75;;;4.10;99.90;;;;;;5015551;28;20068;-77
2021/12/04 05:46:37;;;;;;;7.97;4.88;;;4.10;99.90;;;;;;5026096;28;20125;-78
2021/12/04 05:56:51;;;;;;;14.90;4.78;;;4.10;99.90;;;;;;5029279;28;20045;-76
2021/12/04 05:59:17;;;;;;;;;;;4.00;99.90;;;;;;5024311;28;20042;-77
2021/12/04 06:01:49;;;;;;;8.60;3.05;;;4.00;99.90;;;;;;5037232;28;20317;-76
2021/12/04 06:04:16;;;;;;;10.43;5.03;;;4.00;99.90;;;;;;5038944;28;20469;-78
2021/12/04 06:06:45;;;;;;;4.50;3.22;;;4.00;99.90;;;;;;5018292;28;20049;-77
2021/12/04 06:09:11;;;;;;;11.93;5.07;;;4.00;99.90;;;;;;5035191;28;20490;-76
2021/12/04 06:11:37;;;;;;;8.13;4.22;;;4.00;99.90;;;;;;5037808;28;20041;-76
2021/12/04 06:14:04;;;;;;;13.18;3.35;;;3.90;99.90;;;;;;5046473;28;20375;-76
2021/12/04 06:16:31;;;;;;;5.78;3.88;;;4.00;99.90;;;;;;5040576;28;20437;-77
2021/12/04 06:18:58;;;;;;;3.97;3.20;;;4.00;99.90;;;;;;5033587;28;20112;-77
2021/12/04 06:24:09;;;;;;;9.25;2.28;;;3.90;99.90;;;;;;5057692;28;20045;-77
2021/12/04 06:26:36;;;;;;;3.88;2.85;;;3.90;99.90;;;;;;5029412;28;20109;-77
2021/12/04 06:29:03;;;;;;;12.80;3.85;;;3.90;99.90;;;;;;5019452;28;20045;-78
2021/12/04 06:31:31;;;;;;;7.30;4.15;;;3.90;99.90;;;;;;5020018;28;20041;-77
2021/12/04 06:33:56;;;;;;;7.82;3.90;;;3.90;99.90;;;;;;5011058;28;20041;-78
2021/12/04 06:36:24;;;;;;;9.45;4.22;;;4.00;99.90;;;;;;5028797;28;20788;-77
2021/12/04 06:38:51;;;;;;;8.65;4.25;;;4.00;99.90;;;;;;5029141;28;20061;-77
2021/12/04 06:41:17;;;;;;;6.07;4.35;;;4.00;99.90;;;;;;5013052;28;20103;-77
2021/12/04 06:43:49;;;;;;;5.63;3.50;;;4.00;99.90;;;;;;5021782;28;20426;-76
2021/12/04 06:46:17;;;;;;;3.38;3.08;;;4.00;99.90;;;;;;5033181;28;20073;-78
2021/12/04 06:48:50;;;;;;;3.38;3.08;;;4.00;99.90;;;;;;5033172;28;20041;-77
2021/12/04 06:53:52;;;;;;;9.07;4.38;;;4.00;99.90;;;;;;5047545;28;20057;-76
2021/12/04 06:56:20;;;;;;;6.78;4.55;;;4.00;99.90;;;;;;5008684;28;20037;-76
2021/12/04 06:58:46;;;;;;;5.85;3.53;;;4.00;99.90;;;;;;5027455;28;20418;-76
2021/12/04 07:01:12;;;;;;;5.50;2.60;;;4.00;99.90;;;;;;5027082;28;20041;-77
2021/12/04 07:03:39;;;;;;;7.97;3.42;;;4.00;99.90;;;;;;5027958;28;20045;-77
2021/12/04 07:06:05;;;;;;;5.43;3.67;;;4.00;99.90;;;;;;5030167;28;20506;-76
2021/12/04 07:08:30;;;;;;;13.18;4.22;;;4.00;99.90;;;;;;5026516;28;20073;-76
2021/12/04 07:10:57;;;;;;;3.60;3.28;;;4.00;99.90;;;;;;5031822;28;20069;-76
2021/12/04 07:13:22;;;;;;;;;;;4.20;99.90;;;;;;5033544;28;20041;-77
2021/12/04 07:15:49;;;;;;;8.60;5.53;;;4.00;99.90;;;;;;5033354;28;19967;-76
2021/12/04 07:18:15;;;;;;;10.25;4.20;;;4.10;99.90;;;;;;5032200;28;20081;-76
2021/12/04 07:20:40;;;;;;;10.95;3.60;;;4.00;99.90;;;;;;5024111;28;20072;-78
2021/12/04 07:23:06;;;;;;;5.38;3.03;;;4.10;99.90;;;;;;5032529;28;20419;-78
2021/12/04 07:25:32;;;;;;;9.82;3.97;;;4.10;99.90;;;;;;5040637;28;20387;-76
2021/12/04 07:27:58;;;;;;;5.50;4.03;;;4.30;99.90;;;;;;5027225;28;20065;-76
2021/12/04 07:30:25;;;;;;;4.32;2.97;;;4.10;99.90;;;;;;5026588;28;20496;-77
2021/12/04 07:32:51;;;;;;;8.65;4.80;;;4.10;99.90;;;;;;5028286;28;20038;-77
2021/12/04 07:35:18;;;;;;;11.25;3.75;;;4.10;99.90;;;;;;5024872;28;20047;-77
2021/12/04 07:37:44;;;;;;;8.93;4.35;;;4.00;99.90;;;;;;5009614;28;20046;-77
2021/12/04 07:40:11;;;;;;;6.90;4.30;;;4.00;99.90;;;;;;4983042;28;20110;-77
2021/12/04 07:42:37;;;;;;;4.18;3.35;;;4.10;99.90;;;;;;5013581;28;20076;-77
2021/12/04 07:45:04;;;;;;;2.90;2.40;;;4.10;99.90;;;;;;5029647;28;20491;-77
2021/12/04 07:47:29;;;;;;;10.70;5.40;;;4.10;99.90;;;;;;5010203;28;20069;-78
2021/12/04 07:49:56;;;;;;;5.20;3.00;;;4.20;99.90;;;;;;5027158;28;20045;-78
2021/12/04 07:52:22;;;;;;;13.02;5.65;;;4.10;99.90;;;;;;5004477;28;20104;-78
2021/12/04 07:54:49;;;;;;;5.43;4.65;;;4.10;99.90;;;;;;5021587;28;20053;-78
2021/12/04 07:57:16;;;;;;;7.80;2.95;;;4.10;99.90;;;;;;5032024;28;20041;-77
2021/12/04 07:59:42;;;;;;;10.10;6.57;;;4.00;99.90;;;;;;5033728;28;20487;-78
2021/12/04 08:02:08;;;;;;;7.30;4.55;;;4.10;99.90;;;;;;5040573;28;20047;-77
2021/12/04 08:04:34;;;;;;;7.72;4.22;;;4.30;99.90;;;;;;5033874;28;20053;-76
2021/12/04 08:06:59;;;;;;;10.80;2.67;;;4.10;99.90;;;;;;5032821;28;20041;-77
2021/12/04 08:09:25;;;;;;;13.45;3.78;;;4.10;99.90;;;;;;5014988;28;20041;-77
2021/12/04 08:11:51;;;;;;;4.63;3.42;;;4.10;99.90;;;;;;5032518;28;20115;-77
2021/12/04 08:14:18;;;;;;;6.38;3.45;;;4.10;99.90;;;;;;5010125;28;20128;-77
2021/12/04 08:16:44;;;;;;;6.93;4.43;;;4.10;99.90;;;;;;5024138;28;20054;-77
2021/12/04 08:19:10;;;;;;;5.72;3.47;;;4.10;99.90;;;;;;5038092;28;20048;-78
2021/12/04 08:21:36;;;;;;;;;;;4.10;99.90;;;;;;5034180;28;20116;-77
2021/12/04 08:24:05;;;;;;;7.22;3.20;;;4.10;99.90;;;;;;5038068;28;19984;-77
2021/12/04 08:26:32;;;;;;;2.03;1.83;;;4.10;99.90;;;;;;5012614;28;20128;-77
2021/12/04 08:28:57;;;;;;;;;;;4.10;99.90;;;;;;5036100;28;20072;-77
2021/12/04 08:31:23;;;;;;;10.45;3.17;;;4.20;99.90;;;;;;5002473;28;19928;-77
2021/12/04 08:33:49;;;;;;;4.95;4.32;;;4.10;99.90;;;;;;5048802;28;20051;-77
2021/12/04 08:36:15;;;;;;;4.93;3.63;;;4.20;99.90;;;;;;5047159;28;20512;-77
2021/12/04 08:38:46;;;;;;;7.50;3.45;;;4.20;99.90;;;;;;5039705;28;20064;-77
2021/12/04 08:41:12;;;;;;;8.10;3.65;;;4.20;99.90;;;;;;5013025;28;20145;-77
2021/12/04 08:43:37;;;;;;;5.20;3.05;;;4.10;99.90;;;;;;5044642;28;20136;-78
2021/12/04 08:46:03;;;;;;;7.03;3.50;;;4.20;99.90;;;;;;5029803;28;20581;-78
2021/12/04 08:48:31;;;;;;;6.97;3.58;;;4.10;99.90;;;;;;5023186;28;20388;-77
2021/12/04 08:50:59;;;;;;;5.07;2.33;;;4.20;99.90;;;;;;5011644;28;20045;-77
2021/12/04 08:53:25;;;;;;;7.93;4.50;;;4.20;99.90;;;;;;5024598;28;20049;-77
2021/12/04 08:55:50;;;;;;;;;;;4.20;99.90;;;;;;5024226;28;20030;-77
2021/12/04 08:58:16;;;;;;;5.88;4.15;;;4.20;99.90;;;;;;5028246;28;19924;-77
2021/12/04 09:00:49;;;;;;;4.95;3.38;;;4.20;99.90;;;;;;5031453;28;20038;-76
2021/12/04 09:03:20;;;;;;;5.38;4.03;;;4.20;99.90;;;;;;5031516;28;20591;-77
2021/12/04 09:05:46;;;;;;;2.42;2.17;;;4.20;99.90;;;;;;5036294;28;20057;-76
2021/12/04 09:08:12;;;;;;;6.75;3.70;;;4.30;99.90;;;;;;5025216;28;20037;-77
2021/12/04 09:10:42;;;;;;;;;;;4.20;99.90;;;;;;5024255;28;20088;-79
2021/12/04 09:13:10;;;;;;;5.97;2.67;;;4.20;99.90;;;;;;5029000;28;20007;-78
2021/12/04 09:15:36;;;;;;;5.78;3.83;;;4.20;99.90;;;;;;5009065;28;20132;-76
2021/12/04 09:18:03;;;;;;;5.32;3.25;;;4.20;99.90;;;;;;5020899;28;20049;-76
2021/12/04 09:20:30;;;;;;;6.57;4.00;;;4.30;99.90;;;;;;5023670;28;20353;-78
2021/12/04 09:22:57;;;;;;;5.22;3.15;;;4.30;99.90;;;;;;5001519;28;20117;-78
2021/12/04 09:25:26;;;;;;;3.70;3.30;;;4.20;99.90;;;;;;5015701;28;20513;-77
2021/12/04 10:00:46;;;;;;;6.05;3.83;;;4.50;99.90;;;;;;5029473;28;20491;-76
2021/12/04 10:34:33;;;;;;;5.05;3.08;;;4.80;99.90;;;;;;5016122;28;20474;-76
2021/12/04 10:37:17;;;;;;;9.70;5.22;;;4.90;99.90;;;;;;5020083;28;20041;-76
2021/12/04 10:39:43;;;;;;;3.30;2.13;;;4.90;99.90;;;;;;5037690;28;20053;-76
2021/12/04 10:42:16;;;;;;;5.43;4.07;;;5.00;99.90;;;;;;5030955;28;20449;-76
2021/12/04 10:44:48;;;;;;;7.78;3.15;;;5.00;99.90;;;;;;5030285;28;20038;-77
2021/12/04 10:47:21;;;;;;;4.05;3.67;;;5.10;99.90;;;;;;5006784;28;20411;-76
2021/12/04 10:55:22;;;;;;;8.00;3.50;;;5.10;99.90;;;;;;5030699;28;20053;-77
2021/12/04 10:58:24;;;;;;;2.47;2.13;;;5.10;99.90;;;;;;5030018;28;20037;-76
2021/12/04 11:03:55;;;;;;;2.53;2.00;;;5.20;99.90;;;;;;5024371;28;20041;-77
2021/12/04 11:25:36;;;;;;;4.00;2.53;;;5.20;99.90;;;;;;5015813;28;20053;-77
2021/12/04 11:36:48;;;;;;;5.03;2.75;;;5.20;99.90;;;;;;5032764;28;20049;-77
2021/12/04 11:45:03;;;;;;;8.07;2.70;;;5.20;99.90;;;;;;4924390;29;20149;-76
2021/12/04 11:47:40;;;;;;;3.75;2.28;;;5.20;99.90;;;;;;5019565;28;20053;-78
2021/12/04 11:50:20;;;;;;;3.28;2.97;;;5.30;99.90;;;;;;5029826;28;20152;-78
2021/12/04 11:52:48;;;;;;;3.55;2.15;;;5.20;99.90;;;;;;5017608;28;20544;-77
2021/12/04 11:55:15;;;;;;;4.75;2.88;;;5.20;99.90;;;;;;5018490;28;20092;-78
2021/12/04 11:57:42;;;;;;;3.60;3.30;;;5.30;99.90;;;;;;5027827;28;20384;-78
2021/12/04 12:00:25;;;;;;;3.55;2.67;;;5.30;99.90;;;;;;5021329;28;20045;-78
2021/12/04 12:03:16;;;;;;;3.10;2.60;;;5.30;99.90;;;;;;5018178;28;20097;-77
2021/12/04 12:05:54;;;;;;;3.92;2.72;;;5.30;99.90;;;;;;5023443;28;20049;-78
2021/12/04 12:08:31;;;;;;;8.98;3.15;;;5.30;99.90;;;;;;5021538;28;20049;-78
2021/12/04 12:11:13;;;;;;;4.47;3.00;;;5.30;99.90;;;;;;5008100;28;20046;-78
2021/12/04 12:13:39;;;;;;;10.25;4.55;;;5.30;99.90;;;;;;5017807;28;20080;-78
2021/12/04 12:16:14;;;;;;;5.50;2.08;;;5.30;99.90;;;;;;5010175;28;20440;-78
2021/12/04 12:19:03;;;;;;;7.13;2.55;;;5.30;99.90;;;;;;5012421;28;20470;-78
2021/12/04 12:21:47;;;;;;;3.65;3.33;;;5.20;99.90;;;;;;5021934;28;20097;-77
2021/12/04 12:32:52;;;;;;;5.57;2.80;;;5.20;99.90;;;;;;5026153;28;20037;-78
2021/12/04 12:38:33;;;;;;;6.18;4.03;;;5.20;99.90;;;;;;5033919;28;20413;-78
2021/12/04 12:41:04;;;;;;;5.22;2.20;;;5.20;99.90;;;;;;5035789;28;20049;-78
2021/12/04 12:43:59;;;;;;;4.80;4.35;;;5.30;99.90;;;;;;5000298;28;20502;-78
2021/12/04 12:46:34;;;;;;;7.55;3.60;;;5.40;99.90;;;;;;4985588;28;20072;-78
2021/12/04 12:49:00;;;;;;;4.97;3.28;;;5.60;99.90;;;;;;5019738;28;20138;-80
2021/12/04 12:51:36;;;;;;;6.38;2.92;;;5.50;99.90;;;;;;5002483;28;20076;-78
2021/12/04 12:54:06;;;;;;;6.40;3.80;;;5.50;99.90;;;;;;4997635;28;20489;-76
2021/12/04 12:56:37;;;;;;;5.43;3.10;;;5.70;99.90;;;;;;5010637;28;20096;-77
2021/12/04 12:59:19;;;;;;;4.70;3.25;;;5.40;99.90;;;;;;5024236;28;20116;-76
2021/12/04 13:13:32;;;;;;;4.43;3.70;;;5.10;99.90;;;;;;5028597;28;20444;-78
2021/12/04 13:16:19;;;;;;;3.83;2.35;;;5.10;99.90;;;;;;5029786;28;20287;-78
2021/12/04 13:18:56;;;;;;;5.05;4.13;;;5.00;99.90;;;;;;5025582;28;20077;-77
2021/12/04 13:21:24;;;;;;;8.70;5.45;;;5.00;99.90;;;;;;5022385;28;20112;-77
2021/12/04 13:23:52;;;;;;;7.18;4.53;;;5.00;99.90;;;;;;5051994;28;20390;-79
2021/12/04 13:26:19;;;;;;;5.57;4.05;;;5.10;99.90;;;;;;5017192;28;20124;-78
2021/12/04 13:28:49;;;;;;;4.95;3.15;;;5.60;99.90;;;;;;5011071;28;20442;-77
2021/12/04 13:31:19;;;;;;;6.82;3.70;;;4.90;99.90;;;;;;5023541;28;20108;-76
2021/12/04 13:33:50;;;;;;;13.80;4.03;;;5.20;99.90;;;;;;5031305;28;20045;-79
2021/12/04 13:36:18;;;;;;;11.02;4.65;;;5.00;99.90;;;;;;5033990;28;20076;-77
2021/12/04 13:38:44;;;;;;;6.43;4.47;;;5.00;99.90;;;;;;5041684;28;20064;-77
2021/12/04 13:41:11;;;;;;;7.43;4.60;;;5.30;99.90;;;;;;5033918;28;20466;-79
2021/12/04 13:43:36;;;;;;;11.70;6.13;;;5.00;99.90;;;;;;5042659;28;20504;-76
2021/12/04 13:46:04;;;;;;;3.97;3.42;;;5.60;99.90;;;;;;5032572;28;20034;-77
2021/12/04 13:48:32;;;;;;;7.30;4.70;;;5.00;99.90;;;;;;5026325;28;20470;-76
2021/12/04 13:50:59;;;;;;;11.02;5.28;;;6.10;99.90;;;;;;5009734;28;20060;-76
2021/12/04 13:53:35;;;;;;;3.78;3.38;;;5.00;99.90;;;;;;5011414;28;20038;-78
2021/12/04 13:56:14;;;;;;;6.60;3.95;;;5.00;99.90;;;;;;5020734;28;20045;-77
2021/12/04 13:58:50;;;;;;;4.13;3.53;;;5.00;99.90;;;;;;5013920;28;20048;-76
2021/12/04 14:01:16;;;;;;;7.53;4.07;;;5.10;99.90;;;;;;5011329;28;20044;-78
2021/12/04 14:03:44;;;;;;;11.43;5.07;;;5.10;99.90;;;;;;5023877;28;20034;-76
2021/12/04 14:06:14;;;;;;;9.07;4.40;;;5.00;99.90;;;;;;5019076;28;20045;-79
2021/12/04 14:08:40;;;;;;;5.75;4.00;;;5.00;99.90;;;;;;5036191;28;20048;-78
2021/12/04 14:11:06;;;;;;;15.85;4.57;;;5.00;99.90;;;;;;5016134;28;20036;-75
2021/12/04 14:13:33;;;;;;;7.13;4.07;;;5.00;99.90;;;;;;5034995;28;20045;-77
2021/12/04 14:15:58;;;;;;;9.05;4.93;;;5.00;99.90;;;;;;5023231;28;20037;-77
2021/12/04 14:18:27;;;;;;;12.90;4.55;;;5.00;99.90;;;;;;5019741;28;20041;-77
2021/12/04 14:21:00;;;;;;;5.72;4.18;;;5.00;99.90;;;;;;5024530;28;20037;-76
2021/12/04 14:23:27;;;;;;;12.82;3.47;;;5.00;99.90;;;;;;5011814;28;20030;-77
2021/12/04 14:25:54;;;;;;;11.43;5.28;;;5.00;99.90;;;;;;5003948;28;20072;-79
2021/12/04 14:28:22;;;;;;;15.00;6.95;;;5.00;99.90;;;;;;5036568;28;20033;-77
2021/12/04 14:30:49;;;;;;;7.50;5.57;;;5.00;99.90;;;;;;5032484;28;20477;-78
2021/12/04 14:33:24;;;;;;;9.50;3.90;;;5.00;99.90;;;;;;5032884;28;20048;-77
2021/12/04 14:35:52;;;;;;;15.40;5.80;;;4.90;99.90;;;;;;5018007;28;20180;-79
2021/12/04 14:38:21;;;;;;;6.03;4.57;;;5.40;99.90;;;;;;5033456;28;20387;-76
2021/12/04 14:40:51;;;;;;;17.55;5.43;;;4.00;99.90;;;;;;5010569;28;20037;-77
2021/12/04 14:43:23;;;;;;;8.27;5.15;;;5.00;99.90;;;;;;4995917;28;20045;-77
2021/12/04 14:45:55;;;;;;;16.30;5.28;;;5.00;99.90;;;;;;5003799;28;20083;-78
2021/12/04 14:48:33;;;;;;;10.13;4.28;;;4.90;99.90;;;;;;4999451;28;20069;-78
2021/12/04 14:51:05;;;;;;;12.45;6.47;;;5.00;99.90;;;;;;5013040;28;20075;-79
2021/12/04 14:53:34;;;;;;;17.77;7.07;;;4.90;99.90;;;;;;5000514;28;20060;-80
2021/12/04 14:56:03;;;;;;;13.95;7.20;;;4.90;99.90;;;;;;4993270;28;20047;-78
2021/12/04 14:58:29;;;;;;;13.60;6.80;;;5.00;99.90;;;;;;5027572;28;20045;-76
2021/12/04 15:01:01;;;;;;;15.50;6.03;;;5.00;99.90;;;;;;5001506;28;20049;-75
2021/12/04 15:03:51;;;;;;;10.57;4.55;;;5.00;99.90;;;;;;5016341;28;20378;-78
2021/12/04 15:06:19;;;;;;;6.82;5.35;;;4.90;99.90;;;;;;4989858;28;20124;-78
2021/12/04 15:08:52;;;;;;;10.90;5.57;;;5.00;99.90;;;;;;5001049;28;20050;-76
2021/12/04 15:11:31;;;;;;;8.15;4.85;;;5.80;99.90;;;;;;5016290;28;20038;-78
2021/12/04 15:13:59;;;;;;;10.80;4.65;;;5.00;99.90;;;;;;4991128;28;20118;-77
2021/12/04 15:16:37;;;;;;;16.45;5.93;;;5.00;99.90;;;;;;5003988;28;20075;-76
2021/12/04 15:19:09;;;;;;;16.30;6.78;;;5.00;99.90;;;;;;5011532;28;20494;-79
2021/12/04 15:21:45;;;;;;;8.88;5.97;;;4.90;99.90;;;;;;5004955;28;20068;-79
2021/12/04 15:24:21;;;;;;;12.20;5.90;;;5.80;99.90;;;;;;5015213;28;20045;-77
2021/12/04 15:26:51;;;;;;;15.70;7.05;;;4.90;99.90;;;;;;5029364;28;20084;-77
2021/12/04 15:29:23;;;;;;;6.22;4.13;;;4.90;99.90;;;;;;4991142;28;20081;-77
2021/12/04 15:31:51;;;;;;;6.03;4.93;;;4.90;99.90;;;;;;5037674;28;20438;-79
2021/12/04 15:34:28;;;;;;;10.50;5.70;;;4.90;99.90;;;;;;5004708;28;20129;-77
2021/12/04 15:36:54;;;;;;;14.30;7.68;;;4.80;99.90;;;;;;5003348;28;20044;-79
2021/12/04 15:39:32;;;;;;;8.23;5.60;;;4.80;99.90;;;;;;5008574;28;20565;-76
2021/12/04 15:42:19;;;;;;;7.90;3.40;;;4.80;99.90;;;;;;5013722;28;20046;-79
2021/12/04 15:50:17;;;;;;;7.90;4.03;;;4.80;99.90;;;;;;5029761;28;20041;-76
2021/12/04 15:55:36;;;;;;;13.35;5.47;;;4.80;99.90;;;;;;5035902;28;20075;-78
2021/12/04 15:58:14;;;;;;;5.10;4.60;;;4.80;99.90;;;;;;5037162;28;20029;-79
2021/12/04 16:01:02;;;;;;;9.40;5.05;;;4.80;99.90;;;;;;5032902;28;20048;-77
2021/12/04 16:03:28;;;;;;;9.60;6.03;;;4.80;99.90;;;;;;5027303;28;20045;-78
2021/12/04 16:05:57;;;;;;;12.23;5.90;;;4.80;99.90;;;;;;5028408;28;20406;-79
2021/12/04 16:08:27;;;;;;;10.10;5.63;;;4.80;99.90;;;;;;5020692;28;20477;-79
2021/12/04 16:11:04;;;;;;;9.80;5.10;;;4.80;99.90;;;;;;5014623;28;20124;-79
2021/12/04 16:13:34;;;;;;;6.97;4.18;;;4.80;99.90;;;;;;5010621;28;20614;-78
2021/12/04 16:16:10;;;;;;;18.75;4.55;;;4.80;99.90;;;;;;5015249;28;20047;-77
2021/12/04 16:18:36;;;;;;;5.90;5.30;;;4.80;99.90;;;;;;5019627;28;21433;-78
2021/12/04 16:21:02;;;;;;;5.75;3.90;;;4.80;99.90;;;;;;5018519;28;20048;-78
2021/12/04 16:23:31;;;;;;;14.60;6.25;;;4.80;99.90;;;;;;5013148;28;20095;-79
2021/12/04 16:26:00;;;;;;;7.97;6.03;;;4.80;99.90;;;;;;5020734;28;20502;-76
2021/12/04 16:31:32;;;;;;;9.45;4.47;;;4.80;99.90;;;;;;5015106;28;20052;-76
2021/12/04 16:36:24;;;;;;;22.83;5.50;;;4.80;99.90;;;;;;5031221;28;20041;-76
2021/12/04 16:38:51;;;;;;;5.90;4.80;;;4.80;99.90;;;;;;5029099;28;20517;-76